sensor_id;sensor_type;location;lat;lon;timestamp;P1;durP1;ratioP1;P2;durP2;ratioP2
50709;SDS011;37033;49.994;21.992;2023-04-06T00:01:02;20.20;;;10.60;;
50709;SDS011;37033;49.994;21.992;2023-04-06T00:03:33;18.60;;;9.80;;
50709;SDS011;37033;49.994;21.992;2023-04-06T00:06:04;21.90;;;9.60;;
50709;SDS011;37033;49.994;21.992;2023-04-06T00:08:36;18.40;;;9.10;;
50709;SDS011;37033;49.994;21.992;2023-04-06T00:11:07;13.60;;;7.80;;
50709;SDS011;37033;49.994;21.992;2023-04-06T00:13:38;16.00;;;8.70;;
50709;SDS011;37033;49.994;21.992;2023-04-06T00:16:08;13.00;;;8.40;;
50709;SDS011;37033;49.994;21.992;2023-04-06T00:18:39;16.10;;;9.00;;
50709;SDS011;37033;49.994;21.992;2023-04-06T00:21:11;16.70;;;8.00;;
50709;SDS011;37033;49.994;21.992;2023-04-06T00:23:42;15.40;;;6.80;;
50709;SDS011;37033;49.994;21.992;2023-04-06T00:26:13;13.70;;;7.00;;
50709;SDS011;37033;49.994;21.992;2023-04-06T00:28:44;11.20;;;6.50;;
50709;SDS011;37033;49.994;21.992;2023-04-06T00:31:17;11.70;;;6.50;;
50709;SDS011;37033;49.994;21.992;2023-04-06T00:33:49;12.70;;;6.10;;
50709;SDS011;37033;49.994;21.992;2023-04-06T00:36:19;21.90;;;8.10;;
50709;SDS011;37033;49.994;21.992;2023-04-06T00:38:50;13.80;;;7.50;;
50709;SDS011;37033;49.994;21.992;2023-04-06T00:41:21;14.30;;;7.00;;
50709;SDS011;37033;49.994;21.992;2023-04-06T00:43:53;16.30;;;7.40;;
50709;SDS011;37033;49.994;21.992;2023-04-06T00:46:24;14.30;;;8.00;;
50709;SDS011;37033;49.994;21.992;2023-04-06T00:48:54;14.30;;;7.40;;
50709;SDS011;37033;49.994;21.992;2023-04-06T00:51:25;17.60;;;7.70;;
50709;SDS011;37033;49.994;21.992;2023-04-06T00:53:56;14.80;;;8.60;;
50709;SDS011;37033;49.994;21.992;2023-04-06T00:56:27;19.50;;;9.50;;
50709;SDS011;37033;49.994;21.992;2023-04-06T00:58:57;16.60;;;9.20;;
50709;SDS011;37033;49.994;21.992;2023-04-06T01:01:28;14.80;;;8.30;;
50709;SDS011;37033;49.994;21.992;2023-04-06T01:04:00;16.00;;;8.80;;
50709;SDS011;37033;49.994;21.992;2023-04-06T01:06:31;21.70;;;10.20;;
50709;SDS011;37033;49.994;21.992;2023-04-06T01:09:02;14.80;;;8.20;;
50709;SDS011;37033;49.994;21.992;2023-04-06T01:11:33;19.00;;;9.80;;
50709;SDS011;37033;49.994;21.992;2023-04-06T01:14:04;16.00;;;9.40;;
50709;SDS011;37033;49.994;21.992;2023-04-06T01:16:35;15.60;;;8.50;;
50709;SDS011;37033;49.994;21.992;2023-04-06T01:19:08;15.10;;;9.00;;
50709;SDS011;37033;49.994;21.992;2023-04-06T01:21:40;16.30;;;8.10;;
50709;SDS011;37033;49.994;21.992;2023-04-06T01:24:11;14.20;;;7.90;;
50709;SDS011;37033;49.994;21.992;2023-04-06T01:26:42;15.30;;;8.60;;
50709;SDS011;37033;49.994;21.992;2023-04-06T01:29:13;16.20;;;7.40;;
50709;SDS011;37033;49.994;21.992;2023-04-06T01:31:44;13.60;;;8.00;;
50709;SDS011;37033;49.994;21.992;2023-04-06T01:34:15;11.60;;;7.00;;
50709;SDS011;37033;49.994;21.992;2023-04-06T01:36:46;11.90;;;8.30;;
50709;SDS011;37033;49.994;21.992;2023-04-06T01:39:17;10.10;;;7.10;;
50709;SDS011;37033;49.994;21.992;2023-04-06T01:41:47;9.70;;;6.90;;
50709;SDS011;37033;49.994;21.992;2023-04-06T01:44:18;12.10;;;7.70;;
50709;SDS011;37033;49.994;21.992;2023-04-06T01:46:49;13.40;;;8.10;;
50709;SDS011;37033;49.994;21.992;2023-04-06T01:49:20;12.50;;;7.20;;
50709;SDS011;37033;49.994;21.992;2023-04-06T01:51:51;15.00;;;7.90;;
50709;SDS011;37033;49.994;21.992;2023-04-06T01:54:22;16.70;;;9.00;;
50709;SDS011;37033;49.994;21.992;2023-04-06T01:56:53;9.10;;;6.80;;
50709;SDS011;37033;49.994;21.992;2023-04-06T01:59:24;12.40;;;7.80;;
50709;SDS011;37033;49.994;21.992;2023-04-06T02:01:54;12.30;;;7.90;;
50709;SDS011;37033;49.994;21.992;2023-04-06T02:04:25;11.10;;;6.70;;
50709;SDS011;37033;49.994;21.992;2023-04-06T02:06:56;13.30;;;6.90;;
50709;SDS011;37033;49.994;21.992;2023-04-06T02:09:27;16.70;;;8.50;;
50709;SDS011;37033;49.994;21.992;2023-04-06T02:11:57;11.10;;;7.00;;
50709;SDS011;37033;49.994;21.992;2023-04-06T02:14:29;10.90;;;7.80;;
50709;SDS011;37033;49.994;21.992;2023-04-06T02:16:59;13.60;;;7.80;;
50709;SDS011;37033;49.994;21.992;2023-04-06T02:19:30;14.00;;;7.50;;
50709;SDS011;37033;49.994;21.992;2023-04-06T02:22:01;9.30;;;6.30;;
50709;SDS011;37033;49.994;21.992;2023-04-06T02:24:32;15.70;;;7.40;;
50709;SDS011;37033;49.994;21.992;2023-04-06T02:27:03;8.40;;;6.30;;
50709;SDS011;37033;49.994;21.992;2023-04-06T02:29:34;9.10;;;5.80;;
50709;SDS011;37033;49.994;21.992;2023-04-06T02:32:05;7.70;;;5.50;;
50709;SDS011;37033;49.994;21.992;2023-04-06T02:34:36;10.80;;;5.50;;
50709;SDS011;37033;49.994;21.992;2023-04-06T02:37:06;13.50;;;5.90;;
50709;SDS011;37033;49.994;21.992;2023-04-06T02:39:37;9.40;;;4.90;;
50709;SDS011;37033;49.994;21.992;2023-04-06T02:42:08;9.20;;;5.30;;
50709;SDS011;37033;49.994;21.992;2023-04-06T02:44:39;12.90;;;6.40;;
50709;SDS011;37033;49.994;21.992;2023-04-06T02:47:10;12.50;;;5.80;;
50709;SDS011;37033;49.994;21.992;2023-04-06T02:49:41;15.20;;;6.20;;
50709;SDS011;37033;49.994;21.992;2023-04-06T02:52:11;12.20;;;5.60;;
50709;SDS011;37033;49.994;21.992;2023-04-06T02:54:42;11.80;;;5.80;;
50709;SDS011;37033;49.994;21.992;2023-04-06T02:57:13;9.90;;;6.80;;
50709;SDS011;37033;49.994;21.992;2023-04-06T02:59:44;11.80;;;5.70;;
50709;SDS011;37033;49.994;21.992;2023-04-06T03:02:14;14.60;;;7.40;;
50709;SDS011;37033;49.994;21.992;2023-04-06T03:04:46;13.20;;;7.20;;
50709;SDS011;37033;49.994;21.992;2023-04-06T03:07:17;14.10;;;7.60;;
50709;SDS011;37033;49.994;21.992;2023-04-06T03:09:48;18.30;;;7.40;;
50709;SDS011;37033;49.994;21.992;2023-04-06T03:12:19;15.70;;;8.00;;
50709;SDS011;37033;49.994;21.992;2023-04-06T03:14:50;15.80;;;8.10;;
50709;SDS011;37033;49.994;21.992;2023-04-06T03:17:20;13.30;;;7.70;;
50709;SDS011;37033;49.994;21.992;2023-04-06T03:19:51;14.10;;;7.00;;
50709;SDS011;37033;49.994;21.992;2023-04-06T03:22:22;12.60;;;7.20;;
50709;SDS011;37033;49.994;21.992;2023-04-06T03:24:53;15.30;;;8.50;;
50709;SDS011;37033;49.994;21.992;2023-04-06T03:27:24;12.20;;;7.90;;
50709;SDS011;37033;49.994;21.992;2023-04-06T03:29:55;15.80;;;8.20;;
50709;SDS011;37033;49.994;21.992;2023-04-06T03:32:26;14.80;;;7.30;;
50709;SDS011;37033;49.994;21.992;2023-04-06T03:34:56;14.30;;;7.50;;
50709;SDS011;37033;49.994;21.992;2023-04-06T03:37:27;13.00;;;7.40;;
50709;SDS011;37033;49.994;21.992;2023-04-06T03:39:58;14.10;;;7.30;;
50709;SDS011;37033;49.994;21.992;2023-04-06T03:42:29;14.40;;;7.60;;
50709;SDS011;37033;49.994;21.992;2023-04-06T03:45:00;13.70;;;7.80;;
50709;SDS011;37033;49.994;21.992;2023-04-06T03:47:31;14.60;;;7.20;;
50709;SDS011;37033;49.994;21.992;2023-04-06T03:50:02;13.90;;;7.80;;
50709;SDS011;37033;49.994;21.992;2023-04-06T03:52:34;15.30;;;8.50;;
50709;SDS011;37033;49.994;21.992;2023-04-06T03:55:05;13.00;;;7.70;;
50709;SDS011;37033;49.994;21.992;2023-04-06T03:57:37;15.90;;;7.50;;
50709;SDS011;37033;49.994;21.992;2023-04-06T04:00:09;16.30;;;7.40;;
50709;SDS011;37033;49.994;21.992;2023-04-06T04:02:42;14.80;;;8.10;;
50709;SDS011;37033;49.994;21.992;2023-04-06T04:05:13;14.40;;;7.70;;
50709;SDS011;37033;49.994;21.992;2023-04-06T04:07:44;15.40;;;7.80;;
50709;SDS011;37033;49.994;21.992;2023-04-06T04:10:15;18.10;;;8.00;;
50709;SDS011;37033;49.994;21.992;2023-04-06T04:12:45;11.20;;;7.60;;
50709;SDS011;37033;49.994;21.992;2023-04-06T04:15:16;14.60;;;8.50;;
50709;SDS011;37033;49.994;21.992;2023-04-06T04:17:47;14.70;;;8.00;;
50709;SDS011;37033;49.994;21.992;2023-04-06T04:20:18;16.20;;;7.70;;
50709;SDS011;37033;49.994;21.992;2023-04-06T04:22:49;19.80;;;8.80;;
50709;SDS011;37033;49.994;21.992;2023-04-06T04:25:20;18.20;;;9.00;;
50709;SDS011;37033;49.994;21.992;2023-04-06T04:27:51;15.70;;;7.80;;
50709;SDS011;37033;49.994;21.992;2023-04-06T04:30:22;12.90;;;7.60;;
50709;SDS011;37033;49.994;21.992;2023-04-06T04:32:53;15.10;;;8.00;;
50709;SDS011;37033;49.994;21.992;2023-04-06T04:35:24;12.50;;;8.50;;
50709;SDS011;37033;49.994;21.992;2023-04-06T04:37:55;12.90;;;7.10;;
50709;SDS011;37033;49.994;21.992;2023-04-06T04:40:26;20.00;;;7.40;;
50709;SDS011;37033;49.994;21.992;2023-04-06T04:42:57;15.50;;;7.20;;
50709;SDS011;37033;49.994;21.992;2023-04-06T04:45:28;12.20;;;6.20;;
50709;SDS011;37033;49.994;21.992;2023-04-06T04:47:59;11.30;;;7.00;;
50709;SDS011;37033;49.994;21.992;2023-04-06T04:50:30;10.00;;;5.70;;
50709;SDS011;37033;49.994;21.992;2023-04-06T04:53:00;15.20;;;7.30;;
50709;SDS011;37033;49.994;21.992;2023-04-06T04:55:33;10.40;;;6.80;;
50709;SDS011;37033;49.994;21.992;2023-04-06T04:58:04;10.60;;;6.60;;
50709;SDS011;37033;49.994;21.992;2023-04-06T05:00:36;11.70;;;7.10;;
50709;SDS011;37033;49.994;21.992;2023-04-06T05:03:07;16.50;;;7.20;;
50709;SDS011;37033;49.994;21.992;2023-04-06T05:05:42;13.20;;;7.30;;
50709;SDS011;37033;49.994;21.992;2023-04-06T05:08:13;10.20;;;6.10;;
50709;SDS011;37033;49.994;21.992;2023-04-06T05:10:45;15.20;;;7.50;;
50709;SDS011;37033;49.994;21.992;2023-04-06T05:13:16;10.10;;;6.10;;
50709;SDS011;37033;49.994;21.992;2023-04-06T05:15:47;14.60;;;7.10;;
50709;SDS011;37033;49.994;21.992;2023-04-06T05:18:18;8.00;;;5.90;;
50709;SDS011;37033;49.994;21.992;2023-04-06T05:20:49;14.20;;;6.60;;
50709;SDS011;37033;49.994;21.992;2023-04-06T05:23:20;11.90;;;6.30;;
50709;SDS011;37033;49.994;21.992;2023-04-06T05:25:51;10.30;;;6.90;;
50709;SDS011;37033;49.994;21.992;2023-04-06T05:28:21;15.30;;;7.90;;
50709;SDS011;37033;49.994;21.992;2023-04-06T05:30:52;16.30;;;7.90;;
50709;SDS011;37033;49.994;21.992;2023-04-06T05:33:25;11.30;;;7.80;;
50709;SDS011;37033;49.994;21.992;2023-04-06T05:35:56;14.50;;;7.60;;
50709;SDS011;37033;49.994;21.992;2023-04-06T05:38:28;15.40;;;7.80;;
50709;SDS011;37033;49.994;21.992;2023-04-06T05:41:01;11.60;;;7.00;;
50709;SDS011;37033;49.994;21.992;2023-04-06T05:43:31;14.20;;;7.20;;
50709;SDS011;37033;49.994;21.992;2023-04-06T05:46:02;11.60;;;7.30;;
50709;SDS011;37033;49.994;21.992;2023-04-06T05:48:34;12.50;;;7.90;;
50709;SDS011;37033;49.994;21.992;2023-04-06T05:51:04;17.90;;;9.90;;
50709;SDS011;37033;49.994;21.992;2023-04-06T05:53:35;23.30;;;10.80;;
50709;SDS011;37033;49.994;21.992;2023-04-06T05:56:07;17.80;;;8.60;;
50709;SDS011;37033;49.994;21.992;2023-04-06T05:58:38;16.20;;;8.40;;
50709;SDS011;37033;49.994;21.992;2023-04-06T06:01:08;14.90;;;8.00;;
50709;SDS011;37033;49.994;21.992;2023-04-06T06:03:39;15.90;;;9.10;;
50709;SDS011;37033;49.994;21.992;2023-04-06T06:06:10;12.10;;;6.70;;
50709;SDS011;37033;49.994;21.992;2023-04-06T06:08:41;12.90;;;7.30;;
50709;SDS011;37033;49.994;21.992;2023-04-06T06:11:12;15.80;;;7.70;;
50709;SDS011;37033;49.994;21.992;2023-04-06T06:13:42;12.00;;;7.20;;
50709;SDS011;37033;49.994;21.992;2023-04-06T06:16:13;16.10;;;6.80;;
50709;SDS011;37033;49.994;21.992;2023-04-06T06:18:46;10.70;;;6.70;;
50709;SDS011;37033;49.994;21.992;2023-04-06T06:21:17;13.00;;;7.20;;
50709;SDS011;37033;49.994;21.992;2023-04-06T06:23:48;10.40;;;7.60;;
50709;SDS011;37033;49.994;21.992;2023-04-06T06:26:19;11.40;;;5.90;;
50709;SDS011;37033;49.994;21.992;2023-04-06T06:28:50;11.30;;;7.20;;
50709;SDS011;37033;49.994;21.992;2023-04-06T06:31:21;10.70;;;6.90;;
50709;SDS011;37033;49.994;21.992;2023-04-06T06:33:52;12.20;;;7.10;;
50709;SDS011;37033;49.994;21.992;2023-04-06T06:36:23;11.80;;;6.10;;
50709;SDS011;37033;49.994;21.992;2023-04-06T06:38:54;12.20;;;6.40;;
50709;SDS011;37033;49.994;21.992;2023-04-06T06:41:24;9.60;;;7.50;;
50709;SDS011;37033;49.994;21.992;2023-04-06T06:43:55;11.80;;;6.90;;
50709;SDS011;37033;49.994;21.992;2023-04-06T06:46:26;13.00;;;6.70;;
50709;SDS011;37033;49.994;21.992;2023-04-06T06:48:58;11.00;;;6.60;;
50709;SDS011;37033;49.994;21.992;2023-04-06T06:51:28;12.60;;;7.40;;
50709;SDS011;37033;49.994;21.992;2023-04-06T06:53:59;10.90;;;7.50;;
50709;SDS011;37033;49.994;21.992;2023-04-06T06:56:30;12.70;;;7.30;;
50709;SDS011;37033;49.994;21.992;2023-04-06T06:59:03;20.10;;;7.50;;
50709;SDS011;37033;49.994;21.992;2023-04-06T07:01:35;15.50;;;8.30;;
50709;SDS011;37033;49.994;21.992;2023-04-06T07:04:07;12.50;;;8.10;;
50709;SDS011;37033;49.994;21.992;2023-04-06T07:06:37;11.10;;;6.60;;
50709;SDS011;37033;49.994;21.992;2023-04-06T07:09:08;15.50;;;7.50;;
50709;SDS011;37033;49.994;21.992;2023-04-06T07:11:39;18.50;;;10.50;;
50709;SDS011;37033;49.994;21.992;2023-04-06T07:14:11;12.60;;;8.90;;
50709;SDS011;37033;49.994;21.992;2023-04-06T07:16:42;14.70;;;7.90;;
50709;SDS011;37033;49.994;21.992;2023-04-06T07:19:14;16.70;;;9.90;;
50709;SDS011;37033;49.994;21.992;2023-04-06T07:21:45;14.80;;;9.20;;
50709;SDS011;37033;49.994;21.992;2023-04-06T07:24:16;18.50;;;12.00;;
50709;SDS011;37033;49.994;21.992;2023-04-06T07:26:47;13.40;;;10.30;;
50709;SDS011;37033;49.994;21.992;2023-04-06T07:29:18;14.50;;;8.70;;
50709;SDS011;37033;49.994;21.992;2023-04-06T07:31:49;21.80;;;12.70;;
50709;SDS011;37033;49.994;21.992;2023-04-06T07:34:20;15.90;;;9.90;;
50709;SDS011;37033;49.994;21.992;2023-04-06T07:36:51;16.20;;;10.30;;
50709;SDS011;37033;49.994;21.992;2023-04-06T07:39:22;17.20;;;10.10;;
50709;SDS011;37033;49.994;21.992;2023-04-06T07:41:54;19.80;;;11.50;;
50709;SDS011;37033;49.994;21.992;2023-04-06T07:44:24;15.80;;;9.80;;
50709;SDS011;37033;49.994;21.992;2023-04-06T07:46:55;15.60;;;9.00;;
50709;SDS011;37033;49.994;21.992;2023-04-06T07:49:26;20.70;;;10.60;;
50709;SDS011;37033;49.994;21.992;2023-04-06T07:51:58;16.50;;;9.60;;
50709;SDS011;37033;49.994;21.992;2023-04-06T07:54:30;13.40;;;7.30;;
50709;SDS011;37033;49.994;21.992;2023-04-06T07:57:01;15.40;;;8.80;;
50709;SDS011;37033;49.994;21.992;2023-04-06T07:59:32;12.50;;;8.70;;
50709;SDS011;37033;49.994;21.992;2023-04-06T08:02:03;11.70;;;7.20;;
50709;SDS011;37033;49.994;21.992;2023-04-06T08:04:34;11.00;;;7.30;;
50709;SDS011;37033;49.994;21.992;2023-04-06T08:07:05;13.10;;;8.90;;
50709;SDS011;37033;49.994;21.992;2023-04-06T08:09:36;12.80;;;8.80;;
50709;SDS011;37033;49.994;21.992;2023-04-06T08:12:07;11.40;;;7.10;;
50709;SDS011;37033;49.994;21.992;2023-04-06T08:14:38;18.70;;;9.30;;
50709;SDS011;37033;49.994;21.992;2023-04-06T08:17:09;16.10;;;9.00;;
50709;SDS011;37033;49.994;21.992;2023-04-06T08:19:39;16.40;;;9.80;;
50709;SDS011;37033;49.994;21.992;2023-04-06T08:22:12;12.40;;;8.60;;
50709;SDS011;37033;49.994;21.992;2023-04-06T08:24:43;12.60;;;7.30;;
50709;SDS011;37033;49.994;21.992;2023-04-06T08:27:14;13.60;;;8.60;;
50709;SDS011;37033;49.994;21.992;2023-04-06T08:29:45;15.50;;;8.40;;
50709;SDS011;37033;49.994;21.992;2023-04-06T08:32:16;11.50;;;8.10;;
50709;SDS011;37033;49.994;21.992;2023-04-06T08:34:47;10.10;;;6.70;;
50709;SDS011;37033;49.994;21.992;2023-04-06T08:37:18;9.90;;;7.40;;
50709;SDS011;37033;49.994;21.992;2023-04-06T08:39:48;12.10;;;7.80;;
50709;SDS011;37033;49.994;21.992;2023-04-06T08:42:20;12.60;;;7.60;;
50709;SDS011;37033;49.994;21.992;2023-04-06T08:44:54;12.80;;;9.00;;
50709;SDS011;37033;49.994;21.992;2023-04-06T08:47:25;13.70;;;8.80;;
50709;SDS011;37033;49.994;21.992;2023-04-06T08:49:57;15.40;;;8.30;;
50709;SDS011;37033;49.994;21.992;2023-04-06T08:52:32;13.00;;;7.60;;
50709;SDS011;37033;49.994;21.992;2023-04-06T08:55:03;12.50;;;8.00;;
50709;SDS011;37033;49.994;21.992;2023-04-06T08:57:35;10.90;;;7.20;;
50709;SDS011;37033;49.994;21.992;2023-04-06T09:00:08;13.50;;;8.70;;
50709;SDS011;37033;49.994;21.992;2023-04-06T09:02:42;13.60;;;8.00;;
50709;SDS011;37033;49.994;21.992;2023-04-06T09:05:14;19.30;;;6.90;;
50709;SDS011;37033;49.994;21.992;2023-04-06T09:07:46;17.70;;;8.70;;
50709;SDS011;37033;49.994;21.992;2023-04-06T09:10:17;12.50;;;7.80;;
50709;SDS011;37033;49.994;21.992;2023-04-06T09:12:48;12.60;;;8.60;;
50709;SDS011;37033;49.994;21.992;2023-04-06T09:15:20;15.80;;;10.40;;
50709;SDS011;37033;49.994;21.992;2023-04-06T09:17:51;15.50;;;9.70;;
50709;SDS011;37033;49.994;21.992;2023-04-06T09:20:23;17.20;;;10.40;;
50709;SDS011;37033;49.994;21.992;2023-04-06T09:22:55;14.70;;;11.20;;
50709;SDS011;37033;49.994;21.992;2023-04-06T09:25:27;20.00;;;10.40;;
50709;SDS011;37033;49.994;21.992;2023-04-06T09:28:00;19.80;;;11.30;;
50709;SDS011;37033;49.994;21.992;2023-04-06T09:30:31;17.30;;;10.30;;
50709;SDS011;37033;49.994;21.992;2023-04-06T09:33:03;17.90;;;11.90;;
50709;SDS011;37033;49.994;21.992;2023-04-06T09:35:34;15.70;;;10.50;;
50709;SDS011;37033;49.994;21.992;2023-04-06T09:38:11;17.00;;;10.60;;
50709;SDS011;37033;49.994;21.992;2023-04-06T09:40:51;18.30;;;10.70;;
50709;SDS011;37033;49.994;21.992;2023-04-06T09:43:25;15.00;;;9.70;;
50709;SDS011;37033;49.994;21.992;2023-04-06T09:45:56;16.20;;;10.10;;
50709;SDS011;37033;49.994;21.992;2023-04-06T09:48:31;14.10;;;8.60;;
50709;SDS011;37033;49.994;21.992;2023-04-06T09:51:04;13.40;;;8.60;;
50709;SDS011;37033;49.994;21.992;2023-04-06T09:53:38;13.60;;;8.80;;
50709;SDS011;37033;49.994;21.992;2023-04-06T09:56:15;17.90;;;9.60;;
50709;SDS011;37033;49.994;21.992;2023-04-06T09:58:49;12.40;;;9.20;;
50709;SDS011;37033;49.994;21.992;2023-04-06T10:01:25;15.30;;;9.70;;
50709;SDS011;37033;49.994;21.992;2023-04-06T10:04:01;15.50;;;10.20;;
50709;SDS011;37033;49.994;21.992;2023-04-06T10:06:37;18.80;;;10.60;;
50709;SDS011;37033;49.994;21.992;2023-04-06T10:09:09;17.80;;;8.80;;
50709;SDS011;37033;49.994;21.992;2023-04-06T10:11:41;15.00;;;9.60;;
50709;SDS011;37033;49.994;21.992;2023-04-06T10:14:12;20.30;;;10.30;;
50709;SDS011;37033;49.994;21.992;2023-04-06T10:16:44;16.10;;;9.90;;
50709;SDS011;37033;49.994;21.992;2023-04-06T10:19:20;17.00;;;10.80;;
50709;SDS011;37033;49.994;21.992;2023-04-06T10:21:57;15.60;;;10.30;;
50709;SDS011;37033;49.994;21.992;2023-04-06T10:27:02;15.80;;;9.60;;
50709;SDS011;37033;49.994;21.992;2023-04-06T10:29:42;14.90;;;9.60;;
50709;SDS011;37033;49.994;21.992;2023-04-06T10:32:14;14.80;;;10.60;;
50709;SDS011;37033;49.994;21.992;2023-04-06T10:34:45;15.10;;;9.90;;
50709;SDS011;37033;49.994;21.992;2023-04-06T10:37:16;13.00;;;8.90;;
50709;SDS011;37033;49.994;21.992;2023-04-06T10:39:51;13.00;;;8.90;;
50709;SDS011;37033;49.994;21.992;2023-04-06T10:42:35;13.60;;;10.00;;
50709;SDS011;37033;49.994;21.992;2023-04-06T10:45:07;17.40;;;11.00;;
50709;SDS011;37033;49.994;21.992;2023-04-06T10:47:50;13.30;;;9.60;;
50709;SDS011;37033;49.994;21.992;2023-04-06T10:50:23;15.90;;;10.30;;
50709;SDS011;37033;49.994;21.992;2023-04-06T10:53:00;17.40;;;10.60;;
50709;SDS011;37033;49.994;21.992;2023-04-06T10:55:31;14.00;;;9.30;;
50709;SDS011;37033;49.994;21.992;2023-04-06T10:58:05;17.50;;;10.70;;
50709;SDS011;37033;49.994;21.992;2023-04-06T11:00:36;16.80;;;10.10;;
50709;SDS011;37033;49.994;21.992;2023-04-06T11:03:14;13.60;;;9.00;;
50709;SDS011;37033;49.994;21.992;2023-04-06T11:05:45;17.90;;;10.50;;
50709;SDS011;37033;49.994;21.992;2023-04-06T11:08:24;15.60;;;9.60;;
50709;SDS011;37033;49.994;21.992;2023-04-06T11:11:05;16.80;;;9.40;;
50709;SDS011;37033;49.994;21.992;2023-04-06T11:13:40;11.50;;;8.00;;
50709;SDS011;37033;49.994;21.992;2023-04-06T11:16:15;14.80;;;9.20;;
50709;SDS011;37033;49.994;21.992;2023-04-06T11:18:48;13.90;;;8.30;;
50709;SDS011;37033;49.994;21.992;2023-04-06T11:21:31;14.90;;;10.80;;
50709;SDS011;37033;49.994;21.992;2023-04-06T11:24:06;16.40;;;9.70;;
50709;SDS011;37033;49.994;21.992;2023-04-06T11:26:42;14.00;;;9.60;;
50709;SDS011;37033;49.994;21.992;2023-04-06T11:29:15;14.80;;;11.20;;
50709;SDS011;37033;49.994;21.992;2023-04-06T11:31:47;15.30;;;10.90;;
50709;SDS011;37033;49.994;21.992;2023-04-06T11:34:19;15.00;;;11.10;;
50709;SDS011;37033;49.994;21.992;2023-04-06T11:36:54;16.00;;;10.50;;
50709;SDS011;37033;49.994;21.992;2023-04-06T11:39:26;13.20;;;9.90;;
50709;SDS011;37033;49.994;21.992;2023-04-06T11:41:59;12.10;;;8.40;;
50709;SDS011;37033;49.994;21.992;2023-04-06T11:44:31;12.30;;;8.70;;
50709;SDS011;37033;49.994;21.992;2023-04-06T11:47:03;15.20;;;10.50;;
50709;SDS011;37033;49.994;21.992;2023-04-06T11:49:36;12.10;;;8.50;;
50709;SDS011;37033;49.994;21.992;2023-04-06T11:52:15;14.00;;;9.10;;
50709;SDS011;37033;49.994;21.992;2023-04-06T11:54:47;11.90;;;8.60;;
50709;SDS011;37033;49.994;21.992;2023-04-06T11:57:20;17.20;;;9.90;;
50709;SDS011;37033;49.994;21.992;2023-04-06T11:59:52;18.90;;;11.20;;
50709;SDS011;37033;49.994;21.992;2023-04-06T12:02:24;12.00;;;8.10;;
50709;SDS011;37033;49.994;21.992;2023-04-06T12:04:54;17.10;;;10.30;;
50709;SDS011;37033;49.994;21.992;2023-04-06T12:07:25;9.70;;;7.50;;
50709;SDS011;37033;49.994;21.992;2023-04-06T12:09:57;14.40;;;9.90;;
50709;SDS011;37033;49.994;21.992;2023-04-06T12:15:00;15.60;;;9.50;;
50709;SDS011;37033;49.994;21.992;2023-04-06T12:17:32;15.10;;;10.10;;
50709;SDS011;37033;49.994;21.992;2023-04-06T12:20:05;13.80;;;9.70;;
50709;SDS011;37033;49.994;21.992;2023-04-06T12:22:36;11.70;;;8.60;;
50709;SDS011;37033;49.994;21.992;2023-04-06T12:25:08;15.20;;;10.00;;
50709;SDS011;37033;49.994;21.992;2023-04-06T12:27:39;16.40;;;9.30;;
50709;SDS011;37033;49.994;21.992;2023-04-06T12:30:10;14.80;;;10.60;;
50709;SDS011;37033;49.994;21.992;2023-04-06T12:32:42;17.60;;;11.00;;
50709;SDS011;37033;49.994;21.992;2023-04-06T12:35:13;17.60;;;10.90;;
50709;SDS011;37033;49.994;21.992;2023-04-06T12:37:44;22.50;;;13.30;;
50709;SDS011;37033;49.994;21.992;2023-04-06T12:40:15;19.70;;;11.20;;
50709;SDS011;37033;49.994;21.992;2023-04-06T12:42:46;16.90;;;11.40;;
50709;SDS011;37033;49.994;21.992;2023-04-06T12:45:17;16.80;;;10.00;;
50709;SDS011;37033;49.994;21.992;2023-04-06T12:47:48;17.20;;;11.40;;
50709;SDS011;37033;49.994;21.992;2023-04-06T12:50:19;17.50;;;11.80;;
50709;SDS011;37033;49.994;21.992;2023-04-06T12:52:50;14.40;;;10.00;;
50709;SDS011;37033;49.994;21.992;2023-04-06T12:55:23;15.00;;;10.40;;
50709;SDS011;37033;49.994;21.992;2023-04-06T12:57:54;12.00;;;9.30;;
50709;SDS011;37033;49.994;21.992;2023-04-06T13:00:26;16.10;;;10.10;;
50709;SDS011;37033;49.994;21.992;2023-04-06T13:02:58;14.00;;;9.70;;
50709;SDS011;37033;49.994;21.992;2023-04-06T13:05:29;13.30;;;9.80;;
50709;SDS011;37033;49.994;21.992;2023-04-06T13:08:00;12.60;;;10.20;;
50709;SDS011;37033;49.994;21.992;2023-04-06T13:10:30;15.70;;;10.50;;
50709;SDS011;37033;49.994;21.992;2023-04-06T13:13:01;18.50;;;12.20;;
50709;SDS011;37033;49.994;21.992;2023-04-06T13:15:32;17.10;;;9.70;;
50709;SDS011;37033;49.994;21.992;2023-04-06T13:18:04;15.60;;;9.90;;
50709;SDS011;37033;49.994;21.992;2023-04-06T13:20:35;15.90;;;9.60;;
50709;SDS011;37033;49.994;21.992;2023-04-06T13:23:06;14.20;;;10.00;;
50709;SDS011;37033;49.994;21.992;2023-04-06T13:25:36;17.20;;;10.20;;
50709;SDS011;37033;49.994;21.992;2023-04-06T13:28:07;18.30;;;12.50;;
50709;SDS011;37033;49.994;21.992;2023-04-06T13:30:39;15.80;;;10.70;;
50709;SDS011;37033;49.994;21.992;2023-04-06T13:33:09;14.70;;;9.50;;
50709;SDS011;37033;49.994;21.992;2023-04-06T13:35:40;15.50;;;10.00;;
50709;SDS011;37033;49.994;21.992;2023-04-06T13:38:14;11.20;;;9.30;;
50709;SDS011;37033;49.994;21.992;2023-04-06T13:40:45;14.10;;;10.10;;
50709;SDS011;37033;49.994;21.992;2023-04-06T13:43:16;15.90;;;10.20;;
50709;SDS011;37033;49.994;21.992;2023-04-06T13:45:49;13.90;;;9.70;;
50709;SDS011;37033;49.994;21.992;2023-04-06T13:48:21;18.80;;;12.40;;
50709;SDS011;37033;49.994;21.992;2023-04-06T13:50:53;22.40;;;12.50;;
50709;SDS011;37033;49.994;21.992;2023-04-06T13:53:24;14.30;;;10.20;;
50709;SDS011;37033;49.994;21.992;2023-04-06T13:55:55;16.70;;;12.00;;
50709;SDS011;37033;49.994;21.992;2023-04-06T13:58:25;15.60;;;10.10;;
50709;SDS011;37033;49.994;21.992;2023-04-06T14:00:56;14.00;;;9.60;;
50709;SDS011;37033;49.994;21.992;2023-04-06T14:03:32;14.50;;;10.30;;
50709;SDS011;37033;49.994;21.992;2023-04-06T14:06:10;13.50;;;9.40;;
50709;SDS011;37033;49.994;21.992;2023-04-06T14:08:41;12.90;;;8.40;;
50709;SDS011;37033;49.994;21.992;2023-04-06T14:11:12;20.30;;;11.50;;
50709;SDS011;37033;49.994;21.992;2023-04-06T14:13:44;17.30;;;11.60;;
50709;SDS011;37033;49.994;21.992;2023-04-06T14:16:14;12.20;;;9.10;;
50709;SDS011;37033;49.994;21.992;2023-04-06T14:18:47;11.80;;;8.70;;
50709;SDS011;37033;49.994;21.992;2023-04-06T14:21:18;13.10;;;9.00;;
50709;SDS011;37033;49.994;21.992;2023-04-06T14:23:49;12.00;;;9.30;;
50709;SDS011;37033;49.994;21.992;2023-04-06T14:26:20;15.20;;;10.00;;
50709;SDS011;37033;49.994;21.992;2023-04-06T14:28:52;13.70;;;9.70;;
50709;SDS011;37033;49.994;21.992;2023-04-06T14:31:23;22.70;;;13.30;;
50709;SDS011;37033;49.994;21.992;2023-04-06T14:33:54;15.90;;;11.90;;
50709;SDS011;37033;49.994;21.992;2023-04-06T14:36:24;19.00;;;12.80;;
50709;SDS011;37033;49.994;21.992;2023-04-06T14:38:57;22.10;;;12.90;;
50709;SDS011;37033;49.994;21.992;2023-04-06T14:41:28;18.00;;;11.20;;
50709;SDS011;37033;49.994;21.992;2023-04-06T14:44:00;20.60;;;11.90;;
50709;SDS011;37033;49.994;21.992;2023-04-06T14:46:31;20.90;;;12.20;;
50709;SDS011;37033;49.994;21.992;2023-04-06T14:49:02;17.70;;;12.20;;